Time;durP1;ratioP1;P1;durP2;ratioP2;P2;SDS_P1;SDS_P2;PMS_P1;PMS_P2;Temp;Humidity;BMP_temperature;BMP_pressure;BME280_temperature;BME280_humidity;BME280_pressure;Samples;Min_cycle;Max_cycle;Signal;HPM_P1;HPM_P2
2023/08/10 00:01:19;;;;;;;3.77;2.57;;;17.90;99.90;;;;;;5055497;28;20397;-69
2023/08/10 00:03:45;;;;;;;2.80;2.47;;;17.80;99.90;;;;;;5054452;28;20224;-70
2023/08/10 00:06:11;;;;;;;2.93;2.03;;;17.80;99.90;;;;;;5053618;28;20429;-70
2023/08/10 00:08:37;;;;;;;2.67;2.47;;;17.70;99.90;;;;;;5054989;28;20206;-69
2023/08/10 00:11:04;;;;;;;2.00;1.90;;;17.70;99.90;;;;;;5054910;28;20254;-69
2023/08/10 00:13:29;;;;;;;2.70;2.50;;;17.70;99.90;;;;;;5054877;28;20416;-68
2023/08/10 00:15:55;;;;;;;3.43;2.17;;;17.90;99.90;;;;;;5054820;28;21002;-71
2023/08/10 00:18:21;;;;;;;2.77;2.17;;;17.90;99.90;;;;;;5055089;28;20159;-69
2023/08/10 00:20:46;;;;;;;2.40;2.20;;;17.80;99.90;;;;;;5054547;28;20171;-68
2023/08/10 00:23:12;;;;;;;3.07;2.33;;;17.80;99.90;;;;;;5054425;28;20177;-70
2023/08/10 00:25:38;;;;;;;2.50;2.30;;;17.70;99.90;;;;;;5054506;28;20197;-69
2023/08/10 00:28:04;;;;;;;2.50;2.30;;;17.60;99.90;;;;;;5054524;28;20455;-69
2023/08/10 00:30:30;;;;;;;2.40;2.10;;;17.60;99.90;;;;;;5054755;28;20257;-68
2023/08/10 00:32:56;;;;;;;4.80;2.33;;;17.50;99.90;;;;;;5054853;28;20769;-69
2023/08/10 00:35:22;;;;;;;2.10;1.90;;;17.50;99.90;;;;;;5054385;28;20279;-69
2023/08/10 00:37:49;;;;;;;4.90;2.20;;;17.30;99.90;;;;;;5054068;28;20505;-69
2023/08/10 00:40:15;;;;;;;5.23;2.73;;;17.20;99.90;;;;;;5054751;28;20405;-69
2023/08/10 00:42:41;;;;;;;2.50;2.30;;;17.10;99.90;;;;;;5036457;28;20500;-68
2023/08/10 00:45:08;;;;;;;2.73;2.53;;;17.10;99.90;;;;;;5054556;28;20492;-70
2023/08/10 00:47:33;;;;;;;3.20;2.10;;;17.00;99.90;;;;;;5051505;28;20646;-68
2023/08/10 00:49:59;;;;;;;2.63;2.43;;;16.90;99.90;;;;;;5054240;28;20488;-69
2023/08/10 00:52:25;;;;;;;2.47;2.27;;;16.70;99.90;;;;;;5053971;28;20182;-69
2023/08/10 00:54:51;;;;;;;2.83;2.50;;;16.70;99.90;;;;;;5054111;28;20915;-69
2023/08/10 00:57:17;;;;;;;6.10;2.73;;;16.60;99.90;;;;;;5053936;28;20205;-68
2023/08/10 00:59:43;;;;;;;3.27;2.97;;;16.50;99.90;;;;;;5053981;28;20179;-68
2023/08/10 01:02:10;;;;;;;3.23;2.83;;;16.40;99.90;;;;;;5053939;28;20178;-69
2023/08/10 01:04:35;;;;;;;3.40;2.90;;;16.40;99.90;;;;;;5053661;28;20491;-70
2023/08/10 01:07:12;;;;;;;3.10;2.80;;;16.40;99.90;;;;;;5053714;28;20573;-68
2023/08/10 01:09:50;;;;;;;4.03;2.93;;;16.20;99.90;;;;;;5050204;28;20544;-68
2023/08/10 01:12:28;;;;;;;3.30;2.90;;;16.10;99.90;;;;;;5050664;28;20766;-68
2023/08/10 01:15:02;;;;;;;3.70;3.40;;;16.00;99.90;;;;;;5050854;28;20858;-68
2023/08/10 01:17:33;;;;;;;3.33;2.93;;;15.80;99.90;;;;;;5052199;28;20496;-68
2023/08/10 01:20:07;;;;;;;3.03;2.80;;;15.70;99.90;;;;;;5049662;28;20398;-69
2023/08/10 01:23:00;;;;;;;3.00;2.80;;;15.60;99.90;;;;;;5049545;28;20660;-68
2023/08/10 01:25:26;;;;;;;2.90;2.70;;;15.60;99.90;;;;;;5051907;28;20413;-69
2023/08/10 01:27:52;;;;;;;3.40;3.10;;;15.60;99.90;;;;;;5053436;28;20818;-71
2023/08/10 01:30:18;;;;;;;3.17;2.87;;;15.50;99.90;;;;;;5052576;28;20502;-69
2023/08/10 01:32:44;;;;;;;3.00;2.80;;;15.60;99.90;;;;;;5054339;28;20452;-69
2023/08/10 01:35:13;;;;;;;2.90;2.70;;;15.50;99.90;;;;;;5054336;28;20403;-71
2023/08/10 01:37:39;;;;;;;3.87;3.57;;;15.50;99.90;;;;;;5053927;28;20682;-69
2023/08/10 01:40:12;;;;;;;3.50;3.20;;;15.40;99.90;;;;;;5054456;28;20479;-69
2023/08/10 01:42:38;;;;;;;3.83;3.53;;;15.30;99.90;;;;;;5054222;28;20494;-69
2023/08/10 01:45:05;;;;;;;3.37;3.13;;;15.40;99.90;;;;;;5053849;28;20410;-69
2023/08/10 01:47:52;;;;;;;3.60;3.30;;;15.30;99.90;;;;;;5054138;28;20436;-68
2023/08/10 01:50:20;;;;;;;3.83;3.43;;;15.30;99.90;;;;;;5052490;28;20460;-69
2023/08/10 01:52:53;;;;;;;4.67;3.40;;;15.30;99.90;;;;;;5052944;28;20402;-68
2023/08/10 01:55:20;;;;;;;3.60;3.30;;;15.30;99.90;;;;;;5052536;28;20936;-70
2023/08/10 01:57:46;;;;;;;3.03;2.70;;;15.20;99.90;;;;;;5052241;28;20428;-70
2023/08/10 02:00:12;;;;;;;3.63;3.23;;;15.20;99.90;;;;;;5052434;28;20409;-68
2023/08/10 02:02:38;;;;;;;3.47;3.20;;;15.00;99.90;;;;;;5053182;28;20767;-69
2023/08/10 02:05:05;;;;;;;3.90;3.60;;;15.10;99.90;;;;;;5052813;28;20403;-70
2023/08/10 02:07:30;;;;;;;4.73;3.90;;;15.10;99.90;;;;;;5052323;28;20207;-69
2023/08/10 02:09:56;;;;;;;4.13;3.10;;;15.20;99.90;;;;;;5052745;28;20795;-69
2023/08/10 02:12:21;;;;;;;3.97;3.60;;;15.20;99.90;;;;;;5052786;28;20627;-71
2023/08/10 02:14:47;;;;;;;2.53;2.33;;;15.20;99.90;;;;;;5051958;28;20671;-71
2023/08/10 02:17:12;;;;;;;3.90;3.40;;;15.30;99.90;;;;;;5052943;28;20212;-69
2023/08/10 02:19:38;;;;;;;3.97;3.57;;;15.30;99.90;;;;;;5052615;28;20180;-70
2023/08/10 02:22:04;;;;;;;3.30;3.00;;;15.30;99.90;;;;;;5052489;28;20185;-70
2023/08/10 02:24:30;;;;;;;3.67;2.80;;;15.30;99.90;;;;;;5052617;28;20249;-69
2023/08/10 02:26:55;;;;;;;3.23;3.03;;;15.30;99.90;;;;;;5052314;28;20699;-69
2023/08/10 02:29:21;;;;;;;3.50;3.07;;;15.30;99.90;;;;;;5051615;28;20402;-70
2023/08/10 02:31:47;;;;;;;3.40;3.10;;;15.30;99.90;;;;;;5052518;28;20202;-70
2023/08/10 02:34:12;;;;;;;3.03;2.73;;;15.30;99.90;;;;;;5052424;28;20647;-70
2023/08/10 02:36:38;;;;;;;2.70;2.50;;;15.30;99.90;;;;;;5052249;28;20217;-70
2023/08/10 02:39:05;;;;;;;4.97;3.40;;;15.30;99.90;;;;;;5052197;28;20168;-69
2023/08/10 02:41:32;;;;;;;3.80;3.50;;;15.30;99.90;;;;;;5052496;28;20174;-68
2023/08/10 02:43:57;;;;;;;4.07;3.67;;;15.30;99.90;;;;;;5052471;28;20745;-69
2023/08/10 02:46:23;;;;;;;3.50;3.30;;;15.30;99.90;;;;;;5052189;28;20515;-69
2023/08/10 02:48:48;;;;;;;4.13;3.80;;;15.20;99.90;;;;;;5052355;28;20632;-70
2023/08/10 02:51:14;;;;;;;3.40;3.10;;;15.20;99.90;;;;;;5052342;28;20644;-70
2023/08/10 02:53:39;;;;;;;3.10;2.90;;;15.20;99.90;;;;;;5052129;28;20265;-69
2023/08/10 02:56:05;;;;;;;4.20;3.80;;;15.20;99.90;;;;;;5052047;28;20205;-69
2023/08/10 02:58:31;;;;;;;3.93;3.37;;;15.20;99.90;;;;;;5052504;28;20174;-69
2023/08/10 03:00:56;;;;;;;3.80;2.83;;;15.20;99.90;;;;;;5052145;28;20178;-69
2023/08/10 03:03:22;;;;;;;4.37;3.97;;;15.20;99.90;;;;;;5052149;28;20195;-69
2023/08/10 03:05:48;;;;;;;5.60;3.90;;;15.20;99.90;;;;;;5052244;28;20168;-69
2023/08/10 03:08:13;;;;;;;2.90;2.70;;;15.20;99.90;;;;;;5051969;28;20400;-70
2023/08/10 03:10:39;;;;;;;4.13;3.83;;;15.20;99.90;;;;;;5054904;28;20168;-69
2023/08/10 03:13:04;;;;;;;3.30;2.90;;;15.10;99.90;;;;;;5056163;28;20177;-69
2023/08/10 03:15:31;;;;;;;4.43;4.03;;;15.10;99.90;;;;;;5055714;28;20174;-66
2023/08/10 03:17:56;;;;;;;3.57;3.27;;;15.10;99.90;;;;;;5055776;28;20219;-67
2023/08/10 03:20:22;;;;;;;4.63;4.23;;;15.20;99.90;;;;;;5055896;28;20411;-68
2023/08/10 03:22:48;;;;;;;4.50;3.27;;;15.10;99.90;;;;;;5055645;28;20187;-69
2023/08/10 03:25:14;;;;;;;5.87;3.90;;;15.10;99.90;;;;;;5055965;28;20216;-69
2023/08/10 03:27:40;;;;;;;3.57;3.27;;;15.20;99.90;;;;;;5055950;28;20246;-69
2023/08/10 03:30:06;;;;;;;4.13;3.73;;;15.20;99.90;;;;;;5055422;28;20411;-69
2023/08/10 03:32:32;;;;;;;4.33;3.97;;;15.10;99.90;;;;;;5055837;28;20398;-68
2023/08/10 03:34:57;;;;;;;3.90;3.60;;;15.20;99.90;;;;;;5055783;28;20419;-68
2023/08/10 03:37:23;;;;;;;3.30;3.00;;;15.10;99.90;;;;;;5055287;28;20201;-69
2023/08/10 03:39:49;;;;;;;3.07;2.87;;;15.20;99.90;;;;;;5055937;28;20533;-68
2023/08/10 03:42:15;;;;;;;3.03;2.83;;;15.20;99.90;;;;;;5055878;28;20555;-69
2023/08/10 03:44:40;;;;;;;3.30;3.00;;;15.20;99.90;;;;;;5055373;28;20218;-69
2023/08/10 03:47:06;;;;;;;3.33;3.03;;;15.20;99.90;;;;;;5037789;28;20427;-69
2023/08/10 03:49:31;;;;;;;3.87;3.30;;;15.20;99.90;;;;;;5055447;28;20194;-69
2023/08/10 03:51:57;;;;;;;4.03;3.63;;;15.30;99.90;;;;;;5055381;28;20168;-68
2023/08/10 03:54:23;;;;;;;3.40;3.20;;;15.30;99.90;;;;;;5055102;28;20263;-69
2023/08/10 03:56:48;;;;;;;4.40;3.07;;;15.30;99.90;;;;;;5054857;28;20242;-69
2023/08/10 03:59:14;;;;;;;5.47;2.97;;;15.20;99.90;;;;;;5055217;28;20636;-70
2023/08/10 04:01:41;;;;;;;3.70;3.40;;;15.30;99.90;;;;;;5054644;28;20543;-69
2023/08/10 04:04:07;;;;;;;3.77;3.33;;;15.30;99.90;;;;;;5055497;28;20164;-68
2023/08/10 04:06:32;;;;;;;2.97;2.77;;;15.40;99.90;;;;;;5054939;28;20562;-69
2023/08/10 04:08:58;;;;;;;3.90;3.60;;;15.40;99.90;;;;;;5036809;28;20650;-70
2023/08/10 04:11:24;;;;;;;3.83;3.53;;;15.50;99.90;;;;;;5055317;28;20700;-69
2023/08/10 04:13:50;;;;;;;3.67;3.33;;;15.50;99.90;;;;;;5054890;28;20726;-68
2023/08/10 04:16:16;;;;;;;3.50;3.00;;;15.50;99.90;;;;;;5054534;28;20458;-69
2023/08/10 04:18:42;;;;;;;4.10;3.57;;;15.50;99.90;;;;;;5055120;28;20162;-68
2023/08/10 04:21:07;;;;;;;3.37;3.07;;;15.50;99.90;;;;;;5053373;28;20484;-68
2023/08/10 04:23:33;;;;;;;4.00;3.63;;;15.50;99.90;;;;;;5054491;28;20169;-69
2023/08/10 04:25:59;;;;;;;3.80;3.40;;;15.50;99.90;;;;;;5054591;28;20191;-69
2023/08/10 04:28:24;;;;;;;3.30;3.00;;;15.60;99.90;;;;;;5054732;28;20235;-69
2023/08/10 04:30:50;;;;;;;4.60;4.13;;;15.50;99.90;;;;;;5053727;28;20203;-69
2023/08/10 04:33:15;;;;;;;3.83;3.53;;;15.60;99.90;;;;;;5054601;28;20182;-70
2023/08/10 04:35:41;;;;;;;3.20;2.90;;;15.60;99.90;;;;;;5054675;28;20291;-69
2023/08/10 04:38:07;;;;;;;3.50;3.20;;;15.60;99.90;;;;;;5054210;28;20176;-69
2023/08/10 04:40:33;;;;;;;3.90;3.60;;;15.60;99.90;;;;;;5054735;28;20173;-69
2023/08/10 04:42:59;;;;;;;3.60;3.30;;;15.60;99.90;;;;;;5054638;28;20835;-69
2023/08/10 04:45:25;;;;;;;4.07;3.67;;;15.60;99.90;;;;;;5054081;28;20171;-69
2023/08/10 04:47:51;;;;;;;4.10;3.57;;;15.60;99.90;;;;;;5054182;28;20419;-69
2023/08/10 04:50:17;;;;;;;3.53;3.33;;;15.60;99.90;;;;;;5054397;28;20170;-69
2023/08/10 04:52:42;;;;;;;3.83;3.50;;;15.60;99.90;;;;;;5053918;28;20259;-69
2023/08/10 04:55:09;;;;;;;3.77;3.47;;;15.50;99.90;;;;;;5054188;28;20479;-68
2023/08/10 04:57:36;;;;;;;3.70;3.40;;;15.50;99.90;;;;;;5053966;28;20198;-69
2023/08/10 05:00:08;;;;;;;3.40;3.10;;;15.50;99.90;;;;;;5053816;28;20915;-69
2023/08/10 05:02:34;;;;;;;4.90;4.50;;;15.60;99.90;;;;;;5050534;28;20446;-69
2023/08/10 05:05:00;;;;;;;5.20;3.03;;;15.60;99.90;;;;;;5054267;28;20902;-70
2023/08/10 05:07:27;;;;;;;3.73;3.10;;;15.70;99.90;;;;;;5053540;28;20676;-68
2023/08/10 05:09:53;;;;;;;3.60;3.30;;;15.70;99.90;;;;;;5053942;28;20171;-70
2023/08/10 05:12:18;;;;;;;3.80;3.50;;;15.70;99.90;;;;;;5053848;28;20508;-70
2023/08/10 05:14:44;;;;;;;4.00;3.70;;;15.80;99.90;;;;;;5053631;28;20199;-70
2023/08/10 05:17:10;;;;;;;3.77;3.30;;;15.70;99.90;;;;;;5053671;28;20201;-69
2023/08/10 05:19:36;;;;;;;4.27;3.87;;;15.80;99.90;;;;;;5053594;28;20191;-69
2023/08/10 05:22:01;;;;;;;4.57;4.10;;;15.80;99.90;;;;;;5054324;28;20406;-69
2023/08/10 05:24:27;;;;;;;3.23;2.93;;;15.80;99.90;;;;;;5053298;28;20544;-69
2023/08/10 05:26:52;;;;;;;4.83;3.90;;;15.90;99.90;;;;;;5053381;28;20188;-69
2023/08/10 05:29:18;;;;;;;4.33;3.97;;;15.90;99.90;;;;;;5053589;28;20507;-69
2023/08/10 05:31:44;;;;;;;4.67;4.20;;;15.90;99.90;;;;;;5053082;28;20172;-69
2023/08/10 05:34:10;;;;;;;4.67;4.27;;;15.90;99.90;;;;;;5053504;28;20717;-69
2023/08/10 05:36:35;;;;;;;4.03;3.73;;;15.90;99.90;;;;;;5053408;28;20257;-69
2023/08/10 05:39:01;;;;;;;5.30;4.83;;;15.90;99.90;;;;;;5053043;28;20164;-70
2023/08/10 05:41:27;;;;;;;5.07;4.57;;;16.00;99.90;;;;;;5053288;28;20188;-70
2023/08/10 05:43:52;;;;;;;5.30;4.80;;;16.10;99.90;;;;;;5053168;28;20257;-70
2023/08/10 05:46:18;;;;;;;4.30;3.90;;;16.10;99.90;;;;;;5052816;28;20604;-69
2023/08/10 05:48:43;;;;;;;6.60;5.20;;;16.20;99.90;;;;;;5053301;28;20637;-69
2023/08/10 05:51:09;;;;;;;5.00;4.60;;;16.30;99.90;;;;;;5053368;28;20566;-68
2023/08/10 05:53:34;;;;;;;6.50;5.90;;;16.40;99.90;;;;;;5052895;28;20177;-69
2023/08/10 05:56:00;;;;;;;5.47;4.63;;;16.40;99.90;;;;;;5053053;28;20201;-69
2023/08/10 05:58:25;;;;;;;5.93;5.33;;;16.60;99.90;;;;;;5052883;28;20185;-70
2023/08/10 06:00:51;;;;;;;5.90;5.30;;;16.90;99.90;;;;;;5052012;28;20265;-69
2023/08/10 06:03:17;;;;;;;5.83;5.20;;;17.20;99.90;;;;;;5052854;28;20245;-70
2023/08/10 06:05:43;;;;;;;5.77;4.80;;;17.60;99.90;;;;;;5052943;28;20490;-70
2023/08/10 06:08:09;;;;;;;6.20;4.30;;;17.80;99.90;;;;;;5051792;28;20416;-70
2023/08/10 06:10:35;;;;;;;9.80;4.63;;;18.00;99.90;;;;;;5052640;28;20409;-69
2023/08/10 06:13:02;;;;;;;4.67;4.20;;;18.20;99.90;;;;;;5052819;28;20660;-70
2023/08/10 06:15:27;;;;;;;5.10;3.87;;;18.30;99.90;;;;;;5052460;28;20166;-69
2023/08/10 06:17:53;;;;;;;5.60;4.10;;;18.40;99.90;;;;;;5052945;28;20490;-71
2023/08/10 06:20:21;;;;;;;4.57;3.83;;;18.50;99.90;;;;;;5052564;28;20171;-70
2023/08/10 06:22:48;;;;;;;5.37;4.93;;;18.60;99.90;;;;;;5052397;28;20567;-70
2023/08/10 06:25:15;;;;;;;6.07;4.60;;;18.60;99.90;;;;;;5052570;28;20777;-69
2023/08/10 06:27:40;;;;;;;5.50;4.67;;;18.70;99.90;;;;;;5051566;28;20452;-71
2023/08/10 06:30:08;;;;;;;5.73;4.77;;;18.80;99.90;;;;;;5052309;28;20437;-70
2023/08/10 06:32:35;;;;;;;4.80;4.37;;;18.90;99.90;;;;;;5052567;28;20657;-70
2023/08/10 06:35:01;;;;;;;5.03;4.43;;;19.10;99.90;;;;;;5052606;28;20458;-69
2023/08/10 06:37:26;;;;;;;6.70;5.27;;;19.20;99.90;;;;;;5052244;28;20465;-68
2023/08/10 06:39:52;;;;;;;4.60;4.03;;;19.20;99.90;;;;;;5052499;28;20688;-70
2023/08/10 06:42:17;;;;;;;3.87;3.57;;;19.10;99.90;;;;;;5052442;28;20694;-70
2023/08/10 06:44:44;;;;;;;3.83;3.53;;;19.10;99.90;;;;;;5055313;28;20543;-69
2023/08/10 06:47:10;;;;;;;5.20;4.70;;;18.90;99.90;;;;;;5058909;28;20182;-70
2023/08/10 06:49:36;;;;;;;3.90;3.43;;;18.70;99.90;;;;;;5059065;28;20507;-69
2023/08/10 06:52:03;;;;;;;5.83;4.77;;;18.70;99.90;;;;;;5059069;28;20919;-70
2023/08/10 06:54:29;;;;;;;5.07;4.00;;;18.70;99.90;;;;;;5058764;28;20916;-69
2023/08/10 06:56:55;;;;;;;4.20;3.33;;;18.80;99.90;;;;;;5058634;28;20484;-70
2023/08/10 06:59:21;;;;;;;3.73;3.43;;;18.90;99.90;;;;;;5040927;28;20491;-70
2023/08/10 07:01:47;;;;;;;4.30;3.90;;;19.10;99.90;;;;;;5058582;28;20824;-71
2023/08/10 07:04:12;;;;;;;4.10;3.80;;;19.10;99.90;;;;;;5058854;28;20170;-70
2023/08/10 07:06:38;;;;;;;3.87;3.57;;;19.30;99.90;;;;;;5058461;28;20187;-70
2023/08/10 07:09:04;;;;;;;3.43;3.13;;;19.40;99.90;;;;;;5058380;28;20171;-71
2023/08/10 07:11:30;;;;;;;3.20;3.00;;;19.50;99.90;;;;;;5058848;28;20166;-67
2023/08/10 07:13:55;;;;;;;3.80;3.50;;;19.30;99.90;;;;;;5058821;28;20193;-69
2023/08/10 07:16:21;;;;;;;3.53;3.23;;;19.40;99.90;;;;;;5058097;28;20461;-69
2023/08/10 07:18:46;;;;;;;5.03;4.07;;;19.50;99.90;;;;;;5058634;28;20583;-69
2023/08/10 07:21:12;;;;;;;4.83;4.33;;;19.60;99.90;;;;;;5058622;28;20163;-69
2023/08/10 07:23:38;;;;;;;4.73;3.50;;;19.70;99.90;;;;;;5058557;28;20167;-69
2023/08/10 07:26:03;;;;;;;4.33;3.70;;;19.80;99.90;;;;;;5058192;28;20537;-68
2023/08/10 07:28:29;;;;;;;5.40;4.50;;;20.00;99.90;;;;;;5058444;28;20244;-69
2023/08/10 07:30:55;;;;;;;5.70;3.67;;;19.90;99.90;;;;;;5058344;28;20186;-69
2023/08/10 07:33:21;;;;;;;3.30;3.00;;;20.00;99.90;;;;;;5058698;28;20912;-69
2023/08/10 07:35:47;;;;;;;3.40;3.10;;;20.00;99.90;;;;;;5058529;28;20265;-70
2023/08/10 07:38:14;;;;;;;3.10;2.90;;;20.00;99.90;;;;;;5058517;28;20216;-69
2023/08/10 07:40:40;;;;;;;4.50;3.10;;;20.30;99.90;;;;;;5058464;28;20950;-69
2023/08/10 07:43:05;;;;;;;4.23;3.43;;;20.50;99.90;;;;;;5058526;28;20401;-69
2023/08/10 07:45:31;;;;;;;5.73;3.37;;;20.80;99.90;;;;;;5058034;28;20173;-69
2023/08/10 07:47:56;;;;;;;5.70;3.80;;;20.80;99.90;;;;;;5058689;28;20719;-70
2023/08/10 07:50:22;;;;;;;4.63;4.23;;;20.70;99.90;;;;;;5058713;28;20206;-69
2023/08/10 07:52:47;;;;;;;6.67;4.20;;;20.70;99.90;;;;;;5058109;28;20166;-68
2023/08/10 07:55:13;;;;;;;5.40;4.30;;;20.90;99.90;;;;;;5057730;28;20174;-69
2023/08/10 07:57:39;;;;;;;3.80;3.40;;;20.80;99.90;;;;;;5055253;28;20250;-69
2023/08/10 08:00:06;;;;;;;4.50;4.10;;;21.10;99.90;;;;;;5050688;28;20174;-69
2023/08/10 08:02:34;;;;;;;4.80;4.40;;;20.90;99.90;;;;;;5054629;28;20499;-69
2023/08/10 08:05:00;;;;;;;4.80;4.37;;;20.80;99.90;;;;;;5054295;28;20780;-70
2023/08/10 08:07:25;;;;;;;4.23;3.83;;;20.70;99.90;;;;;;5055128;28;20421;-68
2023/08/10 08:09:52;;;;;;;4.43;4.10;;;20.70;99.90;;;;;;5054477;28;20170;-69
2023/08/10 08:12:17;;;;;;;4.67;3.80;;;20.70;99.90;;;;;;5054661;28;20178;-69
2023/08/10 08:14:43;;;;;;;4.70;3.80;;;20.50;99.90;;;;;;5054861;28;20788;-69
2023/08/10 08:17:09;;;;;;;4.33;3.93;;;20.30;99.90;;;;;;5054796;28;20209;-69
2023/08/10 08:19:36;;;;;;;4.10;3.80;;;20.30;99.90;;;;;;5054731;28;20174;-69
2023/08/10 08:22:03;;;;;;;3.50;3.20;;;20.20;99.90;;;;;;5054487;28;20754;-69
2023/08/10 08:24:28;;;;;;;3.20;2.90;;;20.40;99.90;;;;;;5054621;28;20401;-69
2023/08/10 08:26:56;;;;;;;4.03;3.73;;;20.50;99.90;;;;;;5054613;28;20427;-69
2023/08/10 08:29:22;;;;;;;6.53;4.70;;;20.40;99.90;;;;;;5054652;28;20554;-69
2023/08/10 08:31:48;;;;;;;5.20;4.13;;;20.50;99.90;;;;;;5054298;28;20397;-69
2023/08/10 08:34:15;;;;;;;4.30;3.83;;;20.60;99.90;;;;;;5054248;28;20420;-69
2023/08/10 08:36:40;;;;;;;5.00;4.50;;;20.50;99.90;;;;;;5054525;28;20559;-69
2023/08/10 08:39:06;;;;;;;3.37;3.13;;;20.50;99.90;;;;;;5053959;28;20926;-69
2023/08/10 08:41:36;;;;;;;5.03;4.33;;;20.60;99.90;;;;;;5054564;28;20162;-68
2023/08/10 08:44:06;;;;;;;3.83;3.50;;;20.50;99.90;;;;;;5053702;28;20167;-69
2023/08/10 08:46:33;;;;;;;10.80;3.80;;;20.40;99.90;;;;;;5053928;28;20804;-69
2023/08/10 08:49:01;;;;;;;3.60;3.30;;;20.50;99.90;;;;;;5054296;28;20437;-69
2023/08/10 08:51:27;;;;;;;4.70;3.80;;;20.70;99.90;;;;;;5054179;28;20923;-69
2023/08/10 08:53:54;;;;;;;4.00;3.67;;;20.60;99.90;;;;;;5053637;28;20412;-69
2023/08/10 08:56:20;;;;;;;4.63;3.80;;;20.40;99.90;;;;;;5053986;28;20460;-69
2023/08/10 08:58:45;;;;;;;4.03;3.67;;;20.50;99.90;;;;;;5053862;28;20972;-70
2023/08/10 09:01:13;;;;;;;5.93;4.10;;;20.70;99.90;;;;;;5053747;28;20463;-69
2023/08/10 09:03:39;;;;;;;4.27;3.87;;;20.50;99.90;;;;;;5054077;28;20206;-68
2023/08/10 09:06:05;;;;;;;3.90;3.30;;;20.60;99.90;;;;;;5053696;28;20471;-69
2023/08/10 09:08:31;;;;;;;5.70;3.70;;;20.70;99.90;;;;;;5053048;28;20437;-69
2023/08/10 09:10:56;;;;;;;3.80;3.50;;;20.70;99.90;;;;;;5053602;28;20175;-69
2023/08/10 09:13:23;;;;;;;3.70;3.40;;;20.90;99.90;;;;;;5053663;28;20233;-69
2023/08/10 09:16:10;;;;;;;3.87;3.53;;;21.00;99.90;;;;;;5053231;28;20605;-70
2023/08/10 09:18:38;;;;;;;4.40;3.60;;;21.10;99.90;;;;;;5052419;28;20402;-69
2023/08/10 09:21:14;;;;;;;3.87;3.50;;;21.10;99.90;;;;;;5053684;28;20484;-68
2023/08/10 09:23:48;;;;;;;3.70;3.40;;;21.10;99.90;;;;;;5053150;28;20400;-70
2023/08/10 09:26:16;;;;;;;3.83;3.47;;;21.20;99.90;;;;;;5053271;28;20421;-68
2023/08/10 09:28:42;;;;;;;4.50;3.60;;;21.30;99.90;;;;;;5053550;28;20467;-69
2023/08/10 09:31:09;;;;;;;4.10;3.20;;;21.40;99.90;;;;;;5053021;28;20915;-69
2023/08/10 09:33:37;;;;;;;5.50;3.40;;;21.20;99.90;;;;;;5053260;28;20405;-69
2023/08/10 09:36:04;;;;;;;6.43;3.73;;;21.20;99.90;;;;;;5053210;28;20982;-68
2023/08/10 09:38:30;;;;;;;4.40;4.00;;;21.50;99.90;;;;;;5053009;28;20436;-68
2023/08/10 09:41:12;;;;;;;3.67;2.70;;;21.40;99.90;;;;;;5053502;28;20425;-69
2023/08/10 09:43:39;;;;;;;3.47;3.17;;;21.70;99.90;;;;;;5049071;28;20207;-69
2023/08/10 09:46:06;;;;;;;3.27;3.07;;;21.80;99.90;;;;;;5052809;28;20425;-69
2023/08/10 09:48:40;;;;;;;3.83;3.43;;;22.00;99.90;;;;;;5052977;28;21013;-68
2023/08/10 09:51:08;;;;;;;3.63;3.33;;;21.80;99.90;;;;;;5053086;28;20401;-68
2023/08/10 09:53:34;;;;;;;3.70;3.40;;;21.90;99.90;;;;;;5052485;28;20865;-69
2023/08/10 09:56:01;;;;;;;4.00;3.00;;;22.00;99.90;;;;;;5052568;28;20456;-69
2023/08/10 09:58:27;;;;;;;3.50;3.20;;;22.30;99.90;;;;;;5052923;28;20416;-69
2023/08/10 10:00:53;;;;;;;3.80;2.90;;;22.60;99.90;;;;;;5052948;28;20894;-70
2023/08/10 10:03:23;;;;;;;3.63;3.03;;;22.80;99.90;;;;;;5052778;28;20458;-69
2023/08/10 10:05:50;;;;;;;4.03;3.33;;;22.80;99.90;;;;;;5052492;28;20218;-68
2023/08/10 10:08:16;;;;;;;3.30;3.00;;;22.50;99.90;;;;;;5052325;28;20951;-68
2023/08/10 10:10:44;;;;;;;4.40;3.67;;;22.10;99.90;;;;;;5052453;28;20842;-70
2023/08/10 10:13:15;;;;;;;3.93;3.00;;;22.40;99.90;;;;;;5052505;28;20960;-70
2023/08/10 10:15:45;;;;;;;5.07;3.27;;;22.60;99.90;;;;;;5051961;28;20437;-69
2023/08/10 10:18:12;;;;;;;3.90;3.03;;;22.90;99.90;;;;;;5052681;28;20401;-68
2023/08/10 10:20:40;;;;;;;4.77;3.63;;;22.90;99.90;;;;;;5051690;28;20879;-69
2023/08/10 10:23:17;;;;;;;4.50;3.77;;;23.00;99.90;;;;;;5034412;28;20425;-69
2023/08/10 10:25:59;;;;;;;3.53;3.23;;;23.10;99.90;;;;;;5049498;28;20427;-69
2023/08/10 10:28:27;;;;;;;3.20;2.90;;;23.30;99.90;;;;;;5051865;28;20532;-70
2023/08/10 10:31:14;;;;;;;3.80;3.10;;;23.40;99.90;;;;;;5052432;28;20482;-69
2023/08/10 10:33:54;;;;;;;4.70;3.30;;;23.50;99.90;;;;;;5051044;28;20531;-70
2023/08/10 10:36:20;;;;;;;3.57;2.80;;;23.80;99.90;;;;;;5052574;28;20463;-69
2023/08/10 10:38:47;;;;;;;3.27;2.80;;;23.90;99.90;;;;;;5051957;28;20405;-69
2023/08/10 10:41:33;;;;;;;3.23;2.93;;;24.00;99.90;;;;;;5052471;28;20177;-69
2023/08/10 10:44:03;;;;;;;3.30;3.10;;;23.60;99.90;;;;;;5050893;28;20482;-69
2023/08/10 10:46:31;;;;;;;2.97;2.67;;;23.60;99.90;;;;;;5052087;28;20465;-70
2023/08/10 10:48:58;;;;;;;3.53;3.10;;;23.60;99.90;;;;;;5052224;28;20401;-70
2023/08/10 10:51:24;;;;;;;3.00;2.80;;;23.80;99.90;;;;;;5052099;28;20779;-69
2023/08/10 10:53:53;;;;;;;2.87;2.57;;;24.00;99.90;;;;;;5052083;28;20772;-70
2023/08/10 10:56:24;;;;;;;9.50;3.47;;;24.40;99.90;;;;;;5051930;28;20483;-69
2023/08/10 10:58:50;;;;;;;3.13;2.80;;;24.60;99.90;;;;;;5052111;28;20443;-69
2023/08/10 11:01:22;;;;;;;3.70;3.07;;;24.80;99.90;;;;;;5034149;28;20429;-69
2023/08/10 11:03:54;;;;;;;3.37;3.07;;;26.00;99.90;;;;;;5052199;28;20408;-70
2023/08/10 11:06:20;;;;;;;3.10;2.90;;;26.70;99.90;;;;;;5052269;28;20464;-70
2023/08/10 11:08:54;;;;;;;3.60;3.30;;;27.50;98.90;;;;;;5052047;28;20417;-70
2023/08/10 11:11:23;;;;;;;5.40;2.60;;;28.30;97.50;;;;;;5052316;28;20775;-71
2023/08/10 11:13:51;;;;;;;3.30;2.60;;;29.10;96.20;;;;;;5052178;28;20484;-69
2023/08/10 11:16:17;;;;;;;2.50;2.30;;;29.50;96.00;;;;;;5033481;28;20461;-70
2023/08/10 11:18:43;;;;;;;3.20;2.90;;;30.10;93.30;;;;;;5052113;28;20421;-71
2023/08/10 11:21:10;;;;;;;3.63;3.30;;;29.90;92.10;;;;;;5052059;28;20406;-70
2023/08/10 11:23:38;;;;;;;3.83;2.73;;;29.30;92.20;;;;;;5052098;28;20178;-71
2023/08/10 11:26:03;;;;;;;5.50;2.67;;;30.50;92.40;;;;;;5051751;28;20436;-70
2023/08/10 11:28:29;;;;;;;3.10;2.83;;;31.50;88.40;;;;;;5051681;28;20409;-71
2023/08/10 11:31:04;;;;;;;2.77;2.37;;;32.80;85.90;;;;;;5033985;28;20174;-71
2023/08/10 11:33:29;;;;;;;3.70;2.73;;;30.70;89.40;;;;;;5052595;28;20614;-69
2023/08/10 11:35:56;;;;;;;2.97;2.57;;;30.90;86.20;;;;;;5055155;28;20510;-71
2023/08/10 11:38:23;;;;;;;2.60;2.40;;;30.60;88.10;;;;;;5037700;28;20170;-71
2023/08/10 11:40:48;;;;;;;3.10;2.80;;;30.00;88.50;;;;;;5055780;28;20405;-71
2023/08/10 11:43:15;;;;;;;2.73;2.27;;;29.70;89.90;;;;;;5055476;28;20910;-71
2023/08/10 11:45:42;;;;;;;3.07;2.87;;;31.10;87.40;;;;;;5055198;28;20171;-71
2023/08/10 11:48:11;;;;;;;2.40;2.20;;;32.50;84.30;;;;;;5055773;28;20492;-71
2023/08/10 11:50:39;;;;;;;5.73;2.60;;;33.30;80.10;;;;;;5055591;28;20404;-71
2023/08/10 11:53:15;;;;;;;3.37;2.80;;;33.90;76.20;;;;;;5055571;28;20539;-70
2023/08/10 11:55:46;;;;;;;2.90;2.70;;;34.80;73.20;;;;;;5033565;28;20404;-70
2023/08/10 11:58:13;;;;;;;3.90;2.70;;;33.90;70.60;;;;;;5055277;28;20416;-71
2023/08/10 12:00:42;;;;;;;3.33;2.60;;;34.20;70.00;;;;;;5055439;28;20764;-71
2023/08/10 12:03:11;;;;;;;4.07;3.10;;;35.40;66.80;;;;;;5054775;28;20441;-71
2023/08/10 12:05:37;;;;;;;2.63;2.43;;;35.30;63.90;;;;;;5055154;28;20494;-72
2023/08/10 12:08:12;;;;;;;2.30;2.10;;;35.60;62.70;;;;;;5055265;28;20443;-71
2023/08/10 12:10:41;;;;;;;4.90;3.00;;;33.50;65.40;;;;;;5055144;28;20614;-72
2023/08/10 12:13:08;;;;;;;2.60;2.27;;;34.20;66.70;;;;;;5055208;28;20397;-71
2023/08/10 12:15:37;;;;;;;3.00;2.73;;;34.70;61.80;;;;;;5054444;28;20406;-71
2023/08/10 12:18:05;;;;;;;3.10;2.60;;;32.40;66.70;;;;;;5053957;28;20911;-71
2023/08/10 12:20:32;;;;;;;3.37;2.90;;;31.40;69.20;;;;;;5051237;28;20774;-70
2023/08/10 12:22:58;;;;;;;3.50;3.03;;;32.20;68.50;;;;;;5054547;28;20393;-70
2023/08/10 12:25:23;;;;;;;3.07;2.50;;;31.00;69.40;;;;;;5054656;28;20414;-71
2023/08/10 12:27:49;;;;;;;3.30;2.90;;;32.40;68.10;;;;;;5054488;28;20202;-71
2023/08/10 12:30:15;;;;;;;5.57;2.83;;;33.90;64.20;;;;;;5054046;28;20220;-71
2023/08/10 12:32:41;;;;;;;3.83;2.63;;;33.80;64.00;;;;;;5054008;28;20645;-71
2023/08/10 12:35:06;;;;;;;2.57;2.37;;;34.70;63.00;;;;;;5054601;28;20448;-71
2023/08/10 12:37:32;;;;;;;3.00;2.80;;;34.20;60.80;;;;;;5054347;28;20202;-70
2023/08/10 12:39:57;;;;;;;5.90;2.67;;;34.10;61.10;;;;;;5054526;28;20175;-71
2023/08/10 12:42:24;;;;;;;3.33;2.90;;;33.50;62.70;;;;;;5053466;28;20173;-71
2023/08/10 12:44:51;;;;;;;7.37;2.47;;;32.20;64.50;;;;;;5054618;28;20171;-71
2023/08/10 12:47:17;;;;;;;2.53;2.33;;;32.60;63.50;;;;;;5053844;28;20425;-70